sensor_id;sensor_type;location;lat;lon;timestamp;P1;durP1;ratioP1;P2;durP2;ratioP2
735;SDS011;352;48.626;9.238;2023-02-19T00:01:29;2.80;;;2.60;;
735;SDS011;352;48.626;9.238;2023-02-19T00:03:58;2.60;;;2.40;;
735;SDS011;352;48.626;9.238;2023-02-19T00:06:27;2.40;;;2.20;;
735;SDS011;352;48.626;9.238;2023-02-19T00:08:55;6.40;;;2.40;;
735;SDS011;352;48.626;9.238;2023-02-19T00:11:23;2.50;;;2.10;;
735;SDS011;352;48.626;9.238;2023-02-19T00:13:53;3.60;;;2.53;;
735;SDS011;352;48.626;9.238;2023-02-19T00:16:22;2.70;;;2.27;;
735;SDS011;352;48.626;9.238;2023-02-19T00:18:50;2.67;;;2.47;;
735;SDS011;352;48.626;9.238;2023-02-19T00:21:18;4.90;;;2.73;;
735;SDS011;352;48.626;9.238;2023-02-19T00:23:47;3.83;;;2.80;;
735;SDS011;352;48.626;9.238;2023-02-19T00:26:15;2.93;;;2.67;;
735;SDS011;352;48.626;9.238;2023-02-19T00:28:41;2.77;;;2.53;;
735;SDS011;352;48.626;9.238;2023-02-19T00:31:11;3.20;;;2.60;;
735;SDS011;352;48.626;9.238;2023-02-19T00:33:43;2.63;;;2.43;;
735;SDS011;352;48.626;9.238;2023-02-19T00:36:10;2.60;;;2.40;;
735;SDS011;352;48.626;9.238;2023-02-19T00:38:38;3.50;;;2.93;;
735;SDS011;352;48.626;9.238;2023-02-19T00:41:06;3.87;;;2.80;;
735;SDS011;352;48.626;9.238;2023-02-19T00:43:44;3.00;;;2.70;;
735;SDS011;352;48.626;9.238;2023-02-19T00:46:13;2.70;;;2.50;;
735;SDS011;352;48.626;9.238;2023-02-19T00:48:40;4.77;;;3.20;;
735;SDS011;352;48.626;9.238;2023-02-19T00:51:06;2.80;;;2.60;;
735;SDS011;352;48.626;9.238;2023-02-19T00:53:33;2.87;;;2.67;;
735;SDS011;352;48.626;9.238;2023-02-19T00:56:00;2.30;;;2.10;;
735;SDS011;352;48.626;9.238;2023-02-19T00:58:26;2.90;;;2.60;;
735;SDS011;352;48.626;9.238;2023-02-19T01:00:53;2.90;;;2.70;;
735;SDS011;352;48.626;9.238;2023-02-19T01:03:21;3.63;;;3.07;;
735;SDS011;352;48.626;9.238;2023-02-19T01:05:48;3.10;;;2.77;;
735;SDS011;352;48.626;9.238;2023-02-19T01:08:15;2.70;;;2.50;;
735;SDS011;352;48.626;9.238;2023-02-19T01:10:42;2.73;;;2.53;;
735;SDS011;352;48.626;9.238;2023-02-19T01:13:09;3.00;;;2.73;;
735;SDS011;352;48.626;9.238;2023-02-19T01:15:36;3.47;;;3.17;;
735;SDS011;352;48.626;9.238;2023-02-19T01:18:03;2.53;;;2.33;;
735;SDS011;352;48.626;9.238;2023-02-19T01:20:31;3.50;;;3.20;;
735;SDS011;352;48.626;9.238;2023-02-19T01:22:58;2.67;;;2.47;;
735;SDS011;352;48.626;9.238;2023-02-19T01:25:25;3.20;;;2.90;;
735;SDS011;352;48.626;9.238;2023-02-19T01:27:51;2.97;;;2.17;;
735;SDS011;352;48.626;9.238;2023-02-19T01:30:18;3.07;;;2.77;;
735;SDS011;352;48.626;9.238;2023-02-19T01:32:45;2.47;;;2.27;;
735;SDS011;352;48.626;9.238;2023-02-19T01:35:11;3.00;;;2.80;;
735;SDS011;352;48.626;9.238;2023-02-19T01:37:39;2.93;;;2.47;;
735;SDS011;352;48.626;9.238;2023-02-19T01:40:06;2.40;;;2.13;;
735;SDS011;352;48.626;9.238;2023-02-19T01:42:34;3.00;;;2.80;;
735;SDS011;352;48.626;9.238;2023-02-19T01:47:57;2.73;;;2.30;;
735;SDS011;352;48.626;9.238;2023-02-19T01:50:34;3.00;;;2.70;;
735;SDS011;352;48.626;9.238;2023-02-19T01:53:07;3.90;;;2.43;;
735;SDS011;352;48.626;9.238;2023-02-19T01:55:36;2.53;;;2.33;;
735;SDS011;352;48.626;9.238;2023-02-19T01:58:04;2.47;;;2.27;;
735;SDS011;352;48.626;9.238;2023-02-19T02:00:31;3.20;;;2.90;;
735;SDS011;352;48.626;9.238;2023-02-19T02:02:59;3.17;;;2.87;;
735;SDS011;352;48.626;9.238;2023-02-19T02:08:16;3.40;;;3.07;;
735;SDS011;352;48.626;9.238;2023-02-19T02:11:01;3.17;;;2.90;;
735;SDS011;352;48.626;9.238;2023-02-19T02:13:28;3.17;;;2.97;;
735;SDS011;352;48.626;9.238;2023-02-19T02:15:59;2.47;;;2.30;;
735;SDS011;352;48.626;9.238;2023-02-19T02:18:36;2.90;;;2.70;;
735;SDS011;352;48.626;9.238;2023-02-19T02:24:27;2.60;;;2.40;;
735;SDS011;352;48.626;9.238;2023-02-19T02:27:23;4.33;;;2.47;;
735;SDS011;352;48.626;9.238;2023-02-19T02:30:04;2.73;;;2.53;;
735;SDS011;352;48.626;9.238;2023-02-19T02:32:42;2.70;;;2.50;;
735;SDS011;352;48.626;9.238;2023-02-19T02:35:17;2.90;;;2.60;;
735;SDS011;352;48.626;9.238;2023-02-19T02:37:46;2.93;;;2.30;;
735;SDS011;352;48.626;9.238;2023-02-19T02:40:15;2.70;;;2.50;;
735;SDS011;352;48.626;9.238;2023-02-19T02:42:42;3.40;;;3.10;;
735;SDS011;352;48.626;9.238;2023-02-19T02:45:30;2.80;;;2.60;;
735;SDS011;352;48.626;9.238;2023-02-19T02:48:01;2.97;;;2.77;;
735;SDS011;352;48.626;9.238;2023-02-19T02:50:53;3.17;;;2.70;;
735;SDS011;352;48.626;9.238;2023-02-19T02:53:25;6.80;;;2.70;;
735;SDS011;352;48.626;9.238;2023-02-19T02:56:14;2.67;;;2.47;;
735;SDS011;352;48.626;9.238;2023-02-19T02:58:43;2.80;;;2.60;;
735;SDS011;352;48.626;9.238;2023-02-19T03:01:14;2.90;;;2.63;;
735;SDS011;352;48.626;9.238;2023-02-19T03:04:03;2.23;;;2.10;;
735;SDS011;352;48.626;9.238;2023-02-19T03:06:34;2.80;;;2.60;;
735;SDS011;352;48.626;9.238;2023-02-19T03:09:05;2.43;;;2.23;;
735;SDS011;352;48.626;9.238;2023-02-19T03:11:36;3.23;;;2.93;;
735;SDS011;352;48.626;9.238;2023-02-19T03:14:24;2.67;;;2.23;;
735;SDS011;352;48.626;9.238;2023-02-19T03:17:15;4.07;;;2.60;;
735;SDS011;352;48.626;9.238;2023-02-19T03:20:04;2.70;;;2.50;;
735;SDS011;352;48.626;9.238;2023-02-19T03:22:35;3.10;;;2.30;;
735;SDS011;352;48.626;9.238;2023-02-19T03:25:04;2.60;;;2.40;;
735;SDS011;352;48.626;9.238;2023-02-19T03:27:52;2.60;;;2.40;;
735;SDS011;352;48.626;9.238;2023-02-19T03:30:22;2.83;;;2.57;;
735;SDS011;352;48.626;9.238;2023-02-19T03:32:56;1.80;;;1.70;;
735;SDS011;352;48.626;9.238;2023-02-19T03:35:26;2.30;;;2.20;;
735;SDS011;352;48.626;9.238;2023-02-19T03:37:57;2.30;;;2.10;;
735;SDS011;352;48.626;9.238;2023-02-19T03:40:29;2.40;;;2.20;;
735;SDS011;352;48.626;9.238;2023-02-19T03:43:00;2.13;;;2.03;;
735;SDS011;352;48.626;9.238;2023-02-19T03:45:38;2.37;;;2.17;;
735;SDS011;352;48.626;9.238;2023-02-19T03:48:21;2.60;;;2.40;;
735;SDS011;352;48.626;9.238;2023-02-19T03:50:57;2.00;;;1.90;;
735;SDS011;352;48.626;9.238;2023-02-19T03:53:33;2.13;;;1.97;;
735;SDS011;352;48.626;9.238;2023-02-19T03:56:08;2.10;;;1.90;;
735;SDS011;352;48.626;9.238;2023-02-19T03:58:40;1.93;;;1.83;;
735;SDS011;352;48.626;9.238;2023-02-19T04:01:16;1.70;;;1.60;;
735;SDS011;352;48.626;9.238;2023-02-19T04:03:51;2.40;;;2.00;;
735;SDS011;352;48.626;9.238;2023-02-19T04:06:22;2.23;;;2.10;;
735;SDS011;352;48.626;9.238;2023-02-19T04:08:52;2.20;;;2.00;;
735;SDS011;352;48.626;9.238;2023-02-19T04:11:21;2.53;;;2.13;;
735;SDS011;352;48.626;9.238;2023-02-19T04:13:50;2.70;;;1.97;;
735;SDS011;352;48.626;9.238;2023-02-19T04:16:25;2.20;;;2.00;;
735;SDS011;352;48.626;9.238;2023-02-19T04:18:56;2.30;;;2.10;;
735;SDS011;352;48.626;9.238;2023-02-19T04:21:27;1.97;;;1.70;;
735;SDS011;352;48.626;9.238;2023-02-19T04:23:57;2.37;;;1.83;;
735;SDS011;352;48.626;9.238;2023-02-19T04:26:27;2.37;;;1.70;;
735;SDS011;352;48.626;9.238;2023-02-19T04:28:54;2.13;;;1.93;;
735;SDS011;352;48.626;9.238;2023-02-19T04:31:21;2.83;;;2.03;;
735;SDS011;352;48.626;9.238;2023-02-19T04:33:50;3.13;;;2.03;;
735;SDS011;352;48.626;9.238;2023-02-19T04:36:18;3.23;;;1.93;;
735;SDS011;352;48.626;9.238;2023-02-19T04:38:44;1.80;;;1.70;;
735;SDS011;352;48.626;9.238;2023-02-19T04:41:11;2.20;;;1.80;;
735;SDS011;352;48.626;9.238;2023-02-19T04:43:38;2.13;;;1.90;;
735;SDS011;352;48.626;9.238;2023-02-19T04:46:05;1.70;;;1.60;;
735;SDS011;352;48.626;9.238;2023-02-19T04:48:31;2.13;;;2.00;;
735;SDS011;352;48.626;9.238;2023-02-19T04:50:58;2.03;;;1.77;;
735;SDS011;352;48.626;9.238;2023-02-19T04:53:26;3.07;;;1.67;;
735;SDS011;352;48.626;9.238;2023-02-19T04:55:53;1.83;;;1.73;;
735;SDS011;352;48.626;9.238;2023-02-19T04:58:20;2.13;;;2.00;;
735;SDS011;352;48.626;9.238;2023-02-19T05:00:50;2.10;;;1.90;;
735;SDS011;352;48.626;9.238;2023-02-19T05:03:17;1.60;;;1.50;;
735;SDS011;352;48.626;9.238;2023-02-19T05:05:44;2.00;;;1.90;;
735;SDS011;352;48.626;9.238;2023-02-19T05:08:11;2.40;;;2.20;;
735;SDS011;352;48.626;9.238;2023-02-19T05:10:39;1.40;;;1.30;;
735;SDS011;352;48.626;9.238;2023-02-19T05:13:06;1.30;;;1.20;;
735;SDS011;352;48.626;9.238;2023-02-19T05:15:33;1.43;;;1.17;;
735;SDS011;352;48.626;9.238;2023-02-19T05:17:59;1.20;;;1.10;;
735;SDS011;352;48.626;9.238;2023-02-19T05:20:26;1.30;;;1.00;;
735;SDS011;352;48.626;9.238;2023-02-19T05:22:53;1.33;;;1.20;;
735;SDS011;352;48.626;9.238;2023-02-19T05:25:20;2.00;;;1.03;;
735;SDS011;352;48.626;9.238;2023-02-19T05:27:48;1.23;;;1.13;;
735;SDS011;352;48.626;9.238;2023-02-19T05:30:35;1.10;;;1.10;;
735;SDS011;352;48.626;9.238;2023-02-19T05:33:01;4.07;;;1.40;;
735;SDS011;352;48.626;9.238;2023-02-19T05:35:28;1.10;;;1.00;;
735;SDS011;352;48.626;9.238;2023-02-19T05:37:55;0.93;;;0.90;;
735;SDS011;352;48.626;9.238;2023-02-19T05:40:22;0.80;;;0.80;;
735;SDS011;352;48.626;9.238;2023-02-19T05:42:50;1.03;;;0.90;;
735;SDS011;352;48.626;9.238;2023-02-19T05:45:16;1.17;;;1.00;;
735;SDS011;352;48.626;9.238;2023-02-19T05:47:43;0.80;;;0.80;;
735;SDS011;352;48.626;9.238;2023-02-19T05:50:10;0.80;;;0.80;;
735;SDS011;352;48.626;9.238;2023-02-19T05:52:36;1.40;;;1.30;;
735;SDS011;352;48.626;9.238;2023-02-19T05:55:03;0.93;;;0.90;;
735;SDS011;352;48.626;9.238;2023-02-19T05:57:30;1.10;;;1.00;;
735;SDS011;352;48.626;9.238;2023-02-19T05:59:59;1.63;;;1.00;;
735;SDS011;352;48.626;9.238;2023-02-19T06:02:25;0.80;;;0.80;;
735;SDS011;352;48.626;9.238;2023-02-19T06:04:52;1.13;;;0.80;;
735;SDS011;352;48.626;9.238;2023-02-19T06:07:19;1.50;;;0.80;;
735;SDS011;352;48.626;9.238;2023-02-19T06:09:48;0.70;;;0.70;;
735;SDS011;352;48.626;9.238;2023-02-19T06:12:15;0.97;;;0.97;;
735;SDS011;352;48.626;9.238;2023-02-19T06:14:42;0.80;;;0.80;;
735;SDS011;352;48.626;9.238;2023-02-19T06:17:10;0.87;;;0.87;;
735;SDS011;352;48.626;9.238;2023-02-19T06:19:37;0.87;;;0.87;;
735;SDS011;352;48.626;9.238;2023-02-19T06:22:03;0.60;;;0.60;;
735;SDS011;352;48.626;9.238;2023-02-19T06:24:30;0.80;;;0.80;;
735;SDS011;352;48.626;9.238;2023-02-19T06:26:57;0.70;;;0.70;;
735;SDS011;352;48.626;9.238;2023-02-19T06:29:24;0.60;;;0.60;;
735;SDS011;352;48.626;9.238;2023-02-19T06:31:50;0.70;;;0.70;;
735;SDS011;352;48.626;9.238;2023-02-19T06:34:18;0.60;;;0.60;;
735;SDS011;352;48.626;9.238;2023-02-19T06:36:46;0.70;;;0.70;;
735;SDS011;352;48.626;9.238;2023-02-19T06:39:14;1.80;;;0.80;;
735;SDS011;352;48.626;9.238;2023-02-19T06:41:41;0.90;;;0.90;;
735;SDS011;352;48.626;9.238;2023-02-19T06:44:08;1.00;;;0.90;;
735;SDS011;352;48.626;9.238;2023-02-19T06:46:35;1.53;;;0.80;;
735;SDS011;352;48.626;9.238;2023-02-19T06:49:02;0.70;;;0.70;;
735;SDS011;352;48.626;9.238;2023-02-19T06:51:31;0.63;;;0.63;;
735;SDS011;352;48.626;9.238;2023-02-19T06:53:58;0.93;;;0.80;;
735;SDS011;352;48.626;9.238;2023-02-19T06:56:27;0.77;;;0.70;;
735;SDS011;352;48.626;9.238;2023-02-19T06:58:55;0.60;;;0.60;;
735;SDS011;352;48.626;9.238;2023-02-19T07:01:24;0.50;;;0.50;;
735;SDS011;352;48.626;9.238;2023-02-19T07:03:52;0.50;;;0.50;;
735;SDS011;352;48.626;9.238;2023-02-19T07:06:18;0.60;;;0.60;;
735;SDS011;352;48.626;9.238;2023-02-19T07:08:47;0.70;;;0.70;;
735;SDS011;352;48.626;9.238;2023-02-19T07:11:14;0.67;;;0.50;;
735;SDS011;352;48.626;9.238;2023-02-19T07:13:42;0.60;;;0.60;;
735;SDS011;352;48.626;9.238;2023-02-19T07:16:09;0.60;;;0.60;;
735;SDS011;352;48.626;9.238;2023-02-19T07:18:37;0.57;;;0.57;;
735;SDS011;352;48.626;9.238;2023-02-19T07:21:05;0.80;;;0.70;;
735;SDS011;352;48.626;9.238;2023-02-19T07:23:33;0.70;;;0.70;;
735;SDS011;352;48.626;9.238;2023-02-19T07:26:01;0.67;;;0.67;;
735;SDS011;352;48.626;9.238;2023-02-19T07:28:29;0.60;;;0.60;;
735;SDS011;352;48.626;9.238;2023-02-19T07:30:58;0.60;;;0.60;;
735;SDS011;352;48.626;9.238;2023-02-19T07:33:25;0.97;;;0.60;;
735;SDS011;352;48.626;9.238;2023-02-19T07:35:52;0.80;;;0.60;;
735;SDS011;352;48.626;9.238;2023-02-19T07:38:20;0.50;;;0.50;;
735;SDS011;352;48.626;9.238;2023-02-19T07:40:49;0.77;;;0.77;;
735;SDS011;352;48.626;9.238;2023-02-19T07:43:18;0.60;;;0.60;;
735;SDS011;352;48.626;9.238;2023-02-19T07:45:45;0.60;;;0.60;;
735;SDS011;352;48.626;9.238;2023-02-19T07:48:12;0.53;;;0.53;;
735;SDS011;352;48.626;9.238;2023-02-19T07:50:39;0.63;;;0.63;;
735;SDS011;352;48.626;9.238;2023-02-19T07:53:06;0.60;;;0.60;;
735;SDS011;352;48.626;9.238;2023-02-19T07:55:33;0.83;;;0.83;;
735;SDS011;352;48.626;9.238;2023-02-19T07:58:00;0.80;;;0.80;;
735;SDS011;352;48.626;9.238;2023-02-19T08:00:29;0.63;;;0.63;;
735;SDS011;352;48.626;9.238;2023-02-19T08:02:56;0.80;;;0.80;;
735;SDS011;352;48.626;9.238;2023-02-19T08:05:25;1.07;;;1.00;;
735;SDS011;352;48.626;9.238;2023-02-19T08:07:53;1.10;;;1.00;;
735;SDS011;352;48.626;9.238;2023-02-19T08:10:19;0.80;;;0.80;;
735;SDS011;352;48.626;9.238;2023-02-19T08:13:04;1.00;;;0.90;;
735;SDS011;352;48.626;9.238;2023-02-19T08:15:48;0.90;;;0.90;;
735;SDS011;352;48.626;9.238;2023-02-19T08:18:16;1.60;;;1.50;;
735;SDS011;352;48.626;9.238;2023-02-19T08:20:45;0.90;;;0.90;;
735;SDS011;352;48.626;9.238;2023-02-19T08:23:12;0.90;;;0.90;;
735;SDS011;352;48.626;9.238;2023-02-19T08:25:39;0.90;;;0.90;;
735;SDS011;352;48.626;9.238;2023-02-19T08:28:07;0.80;;;0.80;;
735;SDS011;352;48.626;9.238;2023-02-19T08:30:34;1.43;;;0.83;;
735;SDS011;352;48.626;9.238;2023-02-19T08:33:04;1.10;;;0.93;;
735;SDS011;352;48.626;9.238;2023-02-19T08:35:32;0.77;;;0.70;;
735;SDS011;352;48.626;9.238;2023-02-19T08:38:00;0.70;;;0.70;;
735;SDS011;352;48.626;9.238;2023-02-19T08:40:29;1.13;;;0.97;;
735;SDS011;352;48.626;9.238;2023-02-19T08:43:00;0.80;;;0.80;;
735;SDS011;352;48.626;9.238;2023-02-19T08:45:28;0.90;;;0.90;;
735;SDS011;352;48.626;9.238;2023-02-19T08:47:55;0.80;;;0.73;;
735;SDS011;352;48.626;9.238;2023-02-19T08:50:23;1.20;;;0.70;;
735;SDS011;352;48.626;9.238;2023-02-19T08:52:51;0.93;;;0.93;;
735;SDS011;352;48.626;9.238;2023-02-19T08:55:18;3.43;;;1.37;;
735;SDS011;352;48.626;9.238;2023-02-19T08:57:45;1.47;;;1.03;;
735;SDS011;352;48.626;9.238;2023-02-19T09:00:12;0.80;;;0.80;;
735;SDS011;352;48.626;9.238;2023-02-19T09:02:39;1.63;;;1.17;;
735;SDS011;352;48.626;9.238;2023-02-19T09:05:06;0.73;;;0.70;;
735;SDS011;352;48.626;9.238;2023-02-19T09:07:34;2.83;;;0.70;;
735;SDS011;352;48.626;9.238;2023-02-19T09:10:01;0.67;;;0.67;;
735;SDS011;352;48.626;9.238;2023-02-19T09:12:28;1.00;;;0.87;;
735;SDS011;352;48.626;9.238;2023-02-19T09:14:55;1.23;;;0.80;;
735;SDS011;352;48.626;9.238;2023-02-19T09:17:21;0.90;;;0.90;;
735;SDS011;352;48.626;9.238;2023-02-19T09:19:48;0.80;;;0.80;;
735;SDS011;352;48.626;9.238;2023-02-19T09:22:15;0.83;;;0.83;;
735;SDS011;352;48.626;9.238;2023-02-19T09:24:43;0.90;;;0.90;;
735;SDS011;352;48.626;9.238;2023-02-19T09:27:13;1.00;;;1.00;;
735;SDS011;352;48.626;9.238;2023-02-19T09:29:40;1.67;;;1.00;;
735;SDS011;352;48.626;9.238;2023-02-19T09:32:07;0.90;;;0.90;;
735;SDS011;352;48.626;9.238;2023-02-19T09:34:34;2.47;;;1.33;;
735;SDS011;352;48.626;9.238;2023-02-19T09:37:03;1.53;;;1.00;;
735;SDS011;352;48.626;9.238;2023-02-19T09:39:30;1.57;;;1.10;;
735;SDS011;352;48.626;9.238;2023-02-19T09:41:59;1.20;;;1.10;;
735;SDS011;352;48.626;9.238;2023-02-19T09:44:29;2.20;;;1.20;;
735;SDS011;352;48.626;9.238;2023-02-19T09:47:00;2.87;;;1.20;;
735;SDS011;352;48.626;9.238;2023-02-19T09:49:30;0.80;;;0.80;;
735;SDS011;352;48.626;9.238;2023-02-19T09:51:58;1.83;;;1.00;;
735;SDS011;352;48.626;9.238;2023-02-19T09:54:29;1.83;;;1.10;;
735;SDS011;352;48.626;9.238;2023-02-19T09:56:59;1.00;;;0.90;;
735;SDS011;352;48.626;9.238;2023-02-19T09:59:27;1.63;;;0.90;;
735;SDS011;352;48.626;9.238;2023-02-19T10:01:59;1.23;;;1.07;;
735;SDS011;352;48.626;9.238;2023-02-19T10:04:30;0.90;;;0.90;;
735;SDS011;352;48.626;9.238;2023-02-19T10:06:57;3.87;;;1.30;;
735;SDS011;352;48.626;9.238;2023-02-19T10:09:28;1.23;;;1.13;;
735;SDS011;352;48.626;9.238;2023-02-19T10:11:56;1.77;;;0.90;;
735;SDS011;352;48.626;9.238;2023-02-19T10:14:28;2.23;;;1.00;;
735;SDS011;352;48.626;9.238;2023-02-19T10:16:59;2.00;;;1.30;;
735;SDS011;352;48.626;9.238;2023-02-19T10:19:28;1.70;;;1.20;;
735;SDS011;352;48.626;9.238;2023-02-19T10:21:55;1.73;;;1.40;;
735;SDS011;352;48.626;9.238;2023-02-19T10:24:23;3.37;;;1.23;;
735;SDS011;352;48.626;9.238;2023-02-19T10:26:52;2.40;;;1.60;;
735;SDS011;352;48.626;9.238;2023-02-19T10:29:20;3.53;;;1.37;;
735;SDS011;352;48.626;9.238;2023-02-19T10:32:02;2.90;;;1.10;;
735;SDS011;352;48.626;9.238;2023-02-19T10:34:38;1.17;;;1.07;;
735;SDS011;352;48.626;9.238;2023-02-19T10:37:04;2.57;;;1.60;;
735;SDS011;352;48.626;9.238;2023-02-19T10:39:38;3.53;;;1.40;;
735;SDS011;352;48.626;9.238;2023-02-19T10:42:14;2.63;;;1.33;;
735;SDS011;352;48.626;9.238;2023-02-19T10:44:45;1.20;;;1.10;;
735;SDS011;352;48.626;9.238;2023-02-19T10:47:15;3.90;;;1.50;;
735;SDS011;352;48.626;9.238;2023-02-19T10:49:43;1.27;;;1.17;;
735;SDS011;352;48.626;9.238;2023-02-19T10:52:13;1.53;;;1.20;;
735;SDS011;352;48.626;9.238;2023-02-19T10:54:43;1.50;;;1.23;;
735;SDS011;352;48.626;9.238;2023-02-19T10:57:14;2.17;;;0.90;;
735;SDS011;352;48.626;9.238;2023-02-19T10:59:56;1.20;;;1.10;;
735;SDS011;352;48.626;9.238;2023-02-19T11:02:26;2.13;;;1.47;;
735;SDS011;352;48.626;9.238;2023-02-19T11:05:01;2.20;;;1.33;;
735;SDS011;352;48.626;9.238;2023-02-19T11:07:43;2.53;;;1.37;;
735;SDS011;352;48.626;9.238;2023-02-19T11:10:19;2.03;;;1.47;;
735;SDS011;352;48.626;9.238;2023-02-19T11:12:50;1.60;;;1.40;;
735;SDS011;352;48.626;9.238;2023-02-19T11:15:22;1.50;;;1.30;;
735;SDS011;352;48.626;9.238;2023-02-19T11:17:56;2.33;;;1.50;;
735;SDS011;352;48.626;9.238;2023-02-19T11:20:26;1.43;;;1.30;;
735;SDS011;352;48.626;9.238;2023-02-19T11:22:56;1.50;;;1.00;;
735;SDS011;352;48.626;9.238;2023-02-19T11:25:26;2.80;;;1.40;;
735;SDS011;352;48.626;9.238;2023-02-19T11:27:56;3.43;;;1.63;;
735;SDS011;352;48.626;9.238;2023-02-19T11:30:32;2.37;;;1.20;;
735;SDS011;352;48.626;9.238;2023-02-19T11:33:21;1.83;;;1.60;;
735;SDS011;352;48.626;9.238;2023-02-19T11:35:53;3.43;;;1.37;;
735;SDS011;352;48.626;9.238;2023-02-19T11:38:25;2.10;;;1.40;;
735;SDS011;352;48.626;9.238;2023-02-19T11:40:55;1.47;;;1.13;;
735;SDS011;352;48.626;9.238;2023-02-19T11:43:34;4.27;;;1.73;;
735;SDS011;352;48.626;9.238;2023-02-19T11:46:15;2.13;;;1.20;;
735;SDS011;352;48.626;9.238;2023-02-19T11:48:58;3.83;;;1.27;;
735;SDS011;352;48.626;9.238;2023-02-19T11:51:36;1.70;;;1.33;;
735;SDS011;352;48.626;9.238;2023-02-19T11:54:17;1.67;;;1.30;;
735;SDS011;352;48.626;9.238;2023-02-19T11:56:56;3.73;;;1.60;;
735;SDS011;352;48.626;9.238;2023-02-19T11:59:32;2.13;;;1.40;;
735;SDS011;352;48.626;9.238;2023-02-19T12:02:17;2.37;;;1.43;;
735;SDS011;352;48.626;9.238;2023-02-19T12:07:50;1.70;;;1.20;;
735;SDS011;352;48.626;9.238;2023-02-19T12:10:33;4.00;;;1.53;;
735;SDS011;352;48.626;9.238;2023-02-19T12:13:10;3.20;;;1.20;;
735;SDS011;352;48.626;9.238;2023-02-19T12:18:54;2.00;;;1.60;;
735;SDS011;352;48.626;9.238;2023-02-19T12:21:37;1.40;;;1.27;;
735;SDS011;352;48.626;9.238;2023-02-19T12:24:31;7.03;;;2.10;;
735;SDS011;352;48.626;9.238;2023-02-19T12:27:24;2.57;;;1.60;;
735;SDS011;352;48.626;9.238;2023-02-19T12:30:02;3.07;;;1.60;;
735;SDS011;352;48.626;9.238;2023-02-19T12:33:00;3.70;;;1.57;;
735;SDS011;352;48.626;9.238;2023-02-19T12:35:45;2.10;;;1.60;;
735;SDS011;352;48.626;9.238;2023-02-19T12:38:20;3.27;;;1.87;;
735;SDS011;352;48.626;9.238;2023-02-19T12:40:53;1.83;;;1.40;;
735;SDS011;352;48.626;9.238;2023-02-19T12:43:42;1.93;;;1.83;;
735;SDS011;352;48.626;9.238;2023-02-19T12:46:18;1.40;;;1.20;;
735;SDS011;352;48.626;9.238;2023-02-19T12:48:51;1.40;;;1.30;;
735;SDS011;352;48.626;9.238;2023-02-19T12:51:26;3.87;;;1.30;;
735;SDS011;352;48.626;9.238;2023-02-19T12:53:57;1.50;;;1.40;;
735;SDS011;352;48.626;9.238;2023-02-19T12:56:28;2.33;;;1.43;;
735;SDS011;352;48.626;9.238;2023-02-19T12:58:59;1.63;;;1.40;;
735;SDS011;352;48.626;9.238;2023-02-19T13:01:30;1.93;;;1.73;;
735;SDS011;352;48.626;9.238;2023-02-19T13:06:51;1.40;;;1.30;;
735;SDS011;352;48.626;9.238;2023-02-19T13:09:20;1.40;;;1.30;;
735;SDS011;352;48.626;9.238;2023-02-19T13:11:54;1.80;;;1.30;;
735;SDS011;352;48.626;9.238;2023-02-19T13:14:25;3.07;;;1.33;;
735;SDS011;352;48.626;9.238;2023-02-19T13:16:56;6.20;;;4.60;;
735;SDS011;352;48.626;9.238;2023-02-19T13:19:29;3.47;;;2.03;;
735;SDS011;352;48.626;9.238;2023-02-19T13:22:02;11.73;;;8.63;;
735;SDS011;352;48.626;9.238;2023-02-19T13:24:59;1.57;;;1.43;;
735;SDS011;352;48.626;9.238;2023-02-19T13:30:23;1.40;;;1.30;;
735;SDS011;352;48.626;9.238;2023-02-19T13:32:58;2.90;;;1.60;;
735;SDS011;352;48.626;9.238;2023-02-19T13:38:31;1.30;;;1.20;;
735;SDS011;352;48.626;9.238;2023-02-19T13:41:02;2.00;;;1.60;;
735;SDS011;352;48.626;9.238;2023-02-19T13:43:30;1.77;;;1.60;;
735;SDS011;352;48.626;9.238;2023-02-19T13:46:00;3.13;;;1.50;;
735;SDS011;352;48.626;9.238;2023-02-19T13:48:29;1.70;;;1.60;;
735;SDS011;352;48.626;9.238;2023-02-19T13:54:11;2.90;;;1.50;;
735;SDS011;352;48.626;9.238;2023-02-19T13:56:39;1.43;;;1.33;;
735;SDS011;352;48.626;9.238;2023-02-19T13:59:23;2.40;;;1.60;;
735;SDS011;352;48.626;9.238;2023-02-19T14:02:09;3.77;;;1.50;;
735;SDS011;352;48.626;9.238;2023-02-19T14:04:45;1.60;;;1.40;;
735;SDS011;352;48.626;9.238;2023-02-19T14:25:30;1.73;;;1.60;;
735;SDS011;352;48.626;9.238;2023-02-19T14:31:20;1.90;;;1.80;;
735;SDS011;352;48.626;9.238;2023-02-19T14:33:53;2.40;;;1.60;;
735;SDS011;352;48.626;9.238;2023-02-19T14:36:25;4.13;;;1.73;;
735;SDS011;352;48.626;9.238;2023-02-19T14:39:10;1.77;;;1.40;;
735;SDS011;352;48.626;9.238;2023-02-19T14:41:41;1.50;;;1.30;;
735;SDS011;352;48.626;9.238;2023-02-19T14:44:13;4.23;;;1.80;;
735;SDS011;352;48.626;9.238;2023-02-19T14:46:44;3.80;;;1.77;;
735;SDS011;352;48.626;9.238;2023-02-19T14:49:18;3.00;;;1.60;;
735;SDS011;352;48.626;9.238;2023-02-19T14:51:51;5.13;;;2.17;;
735;SDS011;352;48.626;9.238;2023-02-19T14:54:28;5.03;;;2.37;;
735;SDS011;352;48.626;9.238;2023-02-19T14:57:02;4.03;;;2.23;;
735;SDS011;352;48.626;9.238;2023-02-19T14:59:30;2.20;;;1.40;;
735;SDS011;352;48.626;9.238;2023-02-19T15:01:58;2.93;;;1.80;;
735;SDS011;352;48.626;9.238;2023-02-19T15:04:28;2.50;;;1.50;;
735;SDS011;352;48.626;9.238;2023-02-19T15:06:59;2.03;;;1.60;;
735;SDS011;352;48.626;9.238;2023-02-19T15:09:31;2.50;;;1.77;;
735;SDS011;352;48.626;9.238;2023-02-19T15:12:01;2.83;;;1.90;;
735;SDS011;352;48.626;9.238;2023-02-19T15:14:28;2.17;;;1.70;;
735;SDS011;352;48.626;9.238;2023-02-19T15:16:57;2.10;;;1.60;;
735;SDS011;352;48.626;9.238;2023-02-19T15:19:28;1.50;;;1.40;;
735;SDS011;352;48.626;9.238;2023-02-19T15:22:00;2.23;;;1.90;;
735;SDS011;352;48.626;9.238;2023-02-19T15:24:27;2.70;;;1.67;;
735;SDS011;352;48.626;9.238;2023-02-19T15:26:54;1.73;;;1.27;;
735;SDS011;352;48.626;9.238;2023-02-19T15:29:22;4.20;;;2.00;;
735;SDS011;352;48.626;9.238;2023-02-19T15:31:51;1.83;;;1.57;;
735;SDS011;352;48.626;9.238;2023-02-19T15:34:19;2.90;;;1.60;;
735;SDS011;352;48.626;9.238;2023-02-19T15:36:49;3.50;;;1.90;;
735;SDS011;352;48.626;9.238;2023-02-19T15:39:19;2.30;;;1.60;;
735;SDS011;352;48.626;9.238;2023-02-19T15:41:51;3.07;;;1.60;;
735;SDS011;352;48.626;9.238;2023-02-19T15:44:35;2.27;;;1.47;;
735;SDS011;352;48.626;9.238;2023-02-19T15:47:12;4.07;;;1.80;;
735;SDS011;352;48.626;9.238;2023-02-19T15:49:45;2.40;;;1.90;;
735;SDS011;352;48.626;9.238;2023-02-19T15:52:22;2.70;;;1.53;;
735;SDS011;352;48.626;9.238;2023-02-19T15:54:55;2.10;;;1.87;;
735;SDS011;352;48.626;9.238;2023-02-19T15:57:28;1.77;;;1.67;;
735;SDS011;352;48.626;9.238;2023-02-19T16:00:02;2.73;;;1.77;;
735;SDS011;352;48.626;9.238;2023-02-19T16:02:32;5.10;;;2.10;;
735;SDS011;352;48.626;9.238;2023-02-19T16:04:59;1.63;;;1.53;;
735;SDS011;352;48.626;9.238;2023-02-19T16:07:28;3.17;;;1.90;;
735;SDS011;352;48.626;9.238;2023-02-19T16:10:03;1.93;;;1.80;;
735;SDS011;352;48.626;9.238;2023-02-19T16:12:55;2.43;;;2.10;;
735;SDS011;352;48.626;9.238;2023-02-19T16:15:23;3.73;;;2.20;;
735;SDS011;352;48.626;9.238;2023-02-19T16:17:50;3.33;;;1.90;;
735;SDS011;352;48.626;9.238;2023-02-19T16:20:18;3.23;;;2.00;;
735;SDS011;352;48.626;9.238;2023-02-19T16:22:49;5.23;;;2.00;;
735;SDS011;352;48.626;9.238;2023-02-19T16:25:21;5.60;;;1.93;;
735;SDS011;352;48.626;9.238;2023-02-19T16:27:51;3.33;;;1.93;;
735;SDS011;352;48.626;9.238;2023-02-19T16:30:22;1.93;;;1.73;;
735;SDS011;352;48.626;9.238;2023-02-19T16:36:17;2.30;;;1.77;;
735;SDS011;352;48.626;9.238;2023-02-19T16:39:09;2.83;;;2.10;;
735;SDS011;352;48.626;9.238;2023-02-19T16:44:42;2.20;;;1.67;;
735;SDS011;352;48.626;9.238;2023-02-19T16:49:56;2.00;;;1.80;;
735;SDS011;352;48.626;9.238;2023-02-19T16:52:24;2.23;;;1.70;;
735;SDS011;352;48.626;9.238;2023-02-19T16:54:53;2.00;;;1.80;;
735;SDS011;352;48.626;9.238;2023-02-19T16:57:19;4.43;;;2.00;;
735;SDS011;352;48.626;9.238;2023-02-19T16:59:46;1.97;;;1.77;;
735;SDS011;352;48.626;9.238;2023-02-19T17:02:15;6.43;;;2.20;;
735;SDS011;352;48.626;9.238;2023-02-19T17:04:46;4.10;;;1.77;;
735;SDS011;352;48.626;9.238;2023-02-19T17:07:14;2.10;;;1.90;;